CPX204 Details

Departure: Liège Airport (EBLG) at 1130 UTC
Arrival: Washington Dulles International Airport (KIAD) at 2000 UTC


Current Weather Information
EBLG 260950Z 29005KT 250V350 9999 SCT022 SCT038 07/01 Q1032 NOSIG
KIAD 260952Z 01011G18KT 10SM SCT065 BKN080 03/M06 A3017 RMK AO2 SLP217 T00331056 $